createdAt,value
2022-12-27T00:00:51.881Z,95792.88
2022-12-27T00:03:18.848Z,95787.50
2022-12-27T00:05:46.666Z,95787.69
2022-12-27T00:08:13.408Z,95790.00
2022-12-27T00:10:40.367Z,95802.44
2022-12-27T00:13:06.787Z,95795.25
2022-12-27T00:15:34.347Z,95800.13
2022-12-27T00:18:00.814Z,95783.41
2022-12-27T00:20:27.279Z,95791.91
2022-12-27T00:22:53.682Z,95788.16
2022-12-27T00:25:20.114Z,95793.22
2022-12-27T00:27:46.603Z,95791.41
2022-12-27T00:30:13.117Z,95779.94
2022-12-27T00:32:39.594Z,95794.50
2022-12-27T00:35:06.310Z,95797.13
2022-12-27T00:37:32.754Z,95795.50
2022-12-27T00:39:59.612Z,95799.56
2022-12-27T00:42:26.040Z,95803.19
2022-12-27T00:44:52.482Z,95805.97
2022-12-27T00:47:18.931Z,95811.22
2022-12-27T00:49:45.373Z,95810.56
2022-12-27T00:52:11.816Z,95813.38
2022-12-27T00:54:38.509Z,95809.25
2022-12-27T00:57:04.960Z,95812.88
2022-12-27T00:59:31.437Z,95809.63
2022-12-27T01:01:57.962Z,95805.38
2022-12-27T01:04:24.488Z,95804.53
2022-12-27T01:06:50.910Z,95786.84
2022-12-27T01:09:17.364Z,95789.53
2022-12-27T01:11:43.834Z,95796.38
2022-12-27T01:14:10.263Z,95797.03
2022-12-27T01:16:37.822Z,95785.72
2022-12-27T01:19:04.338Z,95791.34
2022-12-27T01:21:31.030Z,95773.34
2022-12-27T01:23:58.157Z,95773.19
2022-12-27T01:26:24.762Z,95757.31
2022-12-27T01:28:51.809Z,95789.06
2022-12-27T01:31:20.136Z,95771.53
2022-12-27T01:33:46.822Z,95755.00
2022-12-27T01:36:15.702Z,95744.50
2022-12-27T01:38:45.483Z,95726.16
2022-12-27T01:41:49.551Z,95750.63
2022-12-27T01:44:34.498Z,95741.94
2022-12-27T01:47:02.215Z,95724.25
2022-12-27T01:49:28.736Z,95742.94
2022-12-27T01:51:55.446Z,95755.84
2022-12-27T01:54:21.950Z,95758.97
2022-12-27T01:56:48.435Z,95752.41
2022-12-27T01:59:15.023Z,95750.78
2022-12-27T02:01:46.633Z,95765.03
2022-12-27T02:04:18.817Z,95764.53
2022-12-27T02:06:46.355Z,95761.75
2022-12-27T02:09:18.914Z,95759.31
2022-12-27T02:11:52.537Z,95759.31
2022-12-27T02:14:31.271Z,95751.16
2022-12-27T02:16:59.440Z,95752.59
2022-12-27T02:19:35.222Z,95747.53
2022-12-27T02:22:07.781Z,95762.25
2022-12-27T02:24:52.951Z,95747.19
2022-12-27T02:27:32.375Z,95757.31
2022-12-27T02:30:06.515Z,95738.00
2022-12-27T02:32:51.564Z,95745.56
2022-12-27T02:35:32.357Z,95740.34
2022-12-27T02:38:02.564Z,95730.31
2022-12-27T02:40:50.069Z,95740.31
2022-12-27T02:43:35.461Z,95729.50
2022-12-27T02:46:22.999Z,95726.53
2022-12-27T02:49:12.329Z,95723.72
2022-12-27T02:52:17.611Z,95697.34
2022-12-27T02:55:03.606Z,95702.28
2022-12-27T02:57:39.055Z,95696.44
2022-12-27T03:00:24.291Z,95699.53
2022-12-27T03:03:28.655Z,95719.34
2022-12-27T03:06:29.015Z,95721.44
2022-12-27T03:08:58.255Z,95707.84
2022-12-27T03:11:45.284Z,95686.53
2022-12-27T03:14:56.434Z,95706.34
2022-12-27T03:17:33.422Z,95725.84
2022-12-27T03:20:22.730Z,95734.69
2022-12-27T03:23:09.011Z,95742.22
2022-12-27T03:25:36.277Z,95730.75
2022-12-27T03:28:41.075Z,95727.13
2022-12-27T03:31:29.963Z,95734.19
2022-12-27T03:34:04.556Z,95728.13
2022-12-27T03:36:52.149Z,95726.16
2022-12-27T03:39:18.872Z,95732.59
2022-12-27T03:42:06.845Z,95730.13
2022-12-27T03:44:33.383Z,95734.38
2022-12-27T03:47:03.903Z,95723.41
2022-12-27T03:49:41.525Z,95708.72
2022-12-27T03:52:13.925Z,95731.28
2022-12-27T03:54:41.258Z,95738.34
2022-12-27T03:57:18.457Z,95728.19
2022-12-27T03:59:44.928Z,95730.19
2022-12-27T04:02:12.135Z,95731.16
2022-12-27T04:04:38.834Z,95731.16
2022-12-27T04:07:05.386Z,95731.16
2022-12-27T04:09:50.590Z,95731.63
2022-12-27T04:12:35.627Z,95744.22
2022-12-27T04:15:20.515Z,95744.22
2022-12-27T04:18:05.505Z,95750.09
2022-12-27T04:20:50.444Z,95755.34
2022-12-27T04:23:35.392Z,95763.59
2022-12-27T04:26:20.243Z,95744.25
2022-12-27T04:29:05.044Z,95755.84
2022-12-27T04:31:49.997Z,95752.88
2022-12-27T04:34:34.908Z,95760.28
2022-12-27T04:37:01.410Z,95741.28
2022-12-27T04:39:27.889Z,95746.69
2022-12-27T04:42:13.123Z,95745.91
2022-12-27T04:44:58.252Z,95740.66
2022-12-27T04:47:43.658Z,95742.94
2022-12-27T04:50:34.969Z,95743.25
2022-12-27T04:53:19.803Z,95748.31
2022-12-27T04:55:46.246Z,95752.88
2022-12-27T04:58:12.657Z,95741.44
2022-12-27T05:00:57.564Z,95756.22
2022-12-27T05:03:24.502Z,95762.25
2022-12-27T05:05:51.612Z,95759.31
2022-12-27T05:08:37.587Z,95764.53
2022-12-27T05:11:22.622Z,95766.81
2022-12-27T05:14:01.021Z,95757.66
2022-12-27T05:16:27.572Z,95761.28
2022-12-27T05:18:54.109Z,95762.25
2022-12-27T05:21:20.656Z,95749.63
2022-12-27T05:24:06.059Z,95750.84
2022-12-27T05:26:33.133Z,95754.28
2022-12-27T05:28:59.928Z,95757.38
2022-12-27T05:31:27.713Z,95774.06
2022-12-27T05:33:54.596Z,95773.06
2022-12-27T05:36:21.082Z,95760.31
2022-12-27T05:38:47.562Z,95779.66
2022-12-27T05:41:14.488Z,95769.50
2022-12-27T05:43:41.002Z,95779.34
2022-12-27T05:46:08.872Z,95786.53
2022-12-27T05:48:35.737Z,95786.88
2022-12-27T05:51:06.265Z,95787.38
2022-12-27T05:53:32.819Z,95789.88
2022-12-27T05:55:59.398Z,95777.44
2022-12-27T05:58:26.205Z,95784.47
2022-12-27T06:00:52.703Z,95789.19
2022-12-27T06:03:19.351Z,95798.03
2022-12-27T06:05:45.881Z,95799.03
2022-12-27T06:08:12.336Z,95800.81
2022-12-27T06:10:38.803Z,95807.38
2022-12-27T06:13:05.654Z,95809.50
2022-12-27T06:15:32.130Z,95828.50
2022-12-27T06:17:59.267Z,95826.53
2022-12-27T06:20:25.734Z,95820.28
2022-12-27T06:22:52.137Z,95831.44
2022-12-27T06:25:18.606Z,95848.78
2022-12-27T06:27:45.091Z,95834.53
2022-12-27T06:30:12.353Z,95835.72
2022-12-27T06:32:38.830Z,95843.56
2022-12-27T06:35:05.456Z,95842.56
2022-12-27T06:37:31.883Z,95855.66
2022-12-27T06:39:58.353Z,95863.19
2022-12-27T06:42:24.806Z,95857.28
2022-12-27T06:44:51.232Z,95865.47
2022-12-27T06:47:17.698Z,95863.19
2022-12-27T06:49:44.463Z,95857.44
2022-12-27T06:52:10.901Z,95866.31
2022-12-27T06:54:37.387Z,95874.97
2022-12-27T06:57:03.829Z,95872.34
2022-12-27T06:59:30.262Z,95878.56
2022-12-27T07:01:56.880Z,95894.59
2022-12-27T07:04:23.469Z,95901.81
2022-12-27T07:06:49.925Z,95903.75
2022-12-27T07:09:16.409Z,95934.19
2022-12-27T07:11:42.833Z,95939.91
2022-12-27T07:14:09.776Z,95982.97
2022-12-27T07:16:36.545Z,95997.03
2022-12-27T07:19:03.027Z,95993.78
2022-12-27T07:21:29.852Z,96002.13
2022-12-27T07:23:56.725Z,95998.84
2022-12-27T07:26:26.893Z,96003.22
2022-12-27T07:28:54.355Z,95992.25
2022-12-27T07:31:23.106Z,96002.91
2022-12-27T07:33:49.952Z,95997.97
2022-12-27T07:36:18.078Z,96000.75
2022-12-27T07:38:45.129Z,96000.22
2022-12-27T07:41:12.469Z,96007.44
2022-12-27T07:43:38.966Z,96017.94
2022-12-27T07:46:06.406Z,96022.66
2022-12-27T07:48:33.137Z,96021.69
2022-12-27T07:50:59.679Z,96028.38
2022-12-27T07:53:26.135Z,96045.47
2022-12-27T07:55:53.840Z,96043.31
2022-12-27T07:58:20.640Z,96054.94
2022-12-27T08:00:48.287Z,96054.28
2022-12-27T08:03:14.989Z,96058.84
2022-12-27T08:05:53.043Z,96069.47
2022-12-27T08:08:21.490Z,96078.16
2022-12-27T08:10:47.943Z,96076.81
2022-12-27T08:13:14.759Z,96067.63
2022-12-27T08:15:42.100Z,96099.09
2022-12-27T08:18:08.630Z,96111.25
2022-12-27T08:20:35.222Z,96136.00
2022-12-27T08:23:01.734Z,96160.78
2022-12-27T08:25:28.874Z,96170.34
2022-12-27T08:28:04.944Z,96181.34
2022-12-27T08:30:31.727Z,96208.41
2022-12-27T08:32:58.461Z,96212.66
2022-12-27T08:35:51.717Z,96194.31
2022-12-27T08:38:11.538Z,96207.75
2022-12-27T08:40:41.769Z,96196.28
2022-12-27T08:43:08.314Z,96204.47
2022-12-27T08:45:35.608Z,96216.59
2022-12-27T08:48:02.485Z,96229.88
2022-12-27T08:50:29.372Z,96220.19
2022-12-27T08:53:00.009Z,96230.03
2022-12-27T08:55:27.567Z,96240.19
2022-12-27T08:58:00.881Z,96254.97
2022-12-27T09:00:27.798Z,96262.47
2022-12-27T09:02:54.620Z,96271.16
2022-12-27T09:05:22.140Z,96247.22
2022-12-27T09:07:48.709Z,96266.41
2022-12-27T09:10:15.468Z,96264.72
2022-12-27T09:12:41.941Z,96272.78
2022-12-27T09:15:08.918Z,96270.00
2022-12-27T09:17:37.467Z,96268.03
2022-12-27T09:20:04.756Z,96285.41
2022-12-27T09:22:31.333Z,96287.38
2022-12-27T09:24:57.811Z,96291.97
2022-12-27T09:27:24.339Z,96290.00
2022-12-27T09:29:50.764Z,96279.38
2022-12-27T09:32:17.243Z,96292.47
2022-12-27T09:34:43.936Z,96290.19
2022-12-27T09:37:11.197Z,96290.00
2022-12-27T09:39:37.985Z,96292.63
2022-12-27T09:42:49.654Z,96271.16
2022-12-27T09:45:42.066Z,96267.38
2022-12-27T09:48:18.013Z,96268.97
2022-12-27T09:50:50.525Z,96262.13
2022-12-27T09:53:17.660Z,96253.41
2022-12-27T09:55:52.112Z,96272.09
2022-12-27T09:58:56.949Z,96281.09
2022-12-27T10:01:31.907Z,96291.91
2022-12-27T10:03:59.187Z,96290.28
2022-12-27T10:06:28.395Z,96289.16
2022-12-27T10:08:57.834Z,96283.09
2022-12-27T10:11:50.598Z,96280.78
2022-12-27T10:14:35.864Z,96295.53
2022-12-27T10:17:08.293Z,96292.41
2022-12-27T10:19:43.763Z,96316.97
2022-12-27T10:22:16.163Z,96306.66
2022-12-27T10:24:53.695Z,96313.03
2022-12-27T10:27:27.042Z,96318.09
2022-12-27T10:29:54.610Z,96312.53
2022-12-27T10:32:21.159Z,96347.59
2022-12-27T10:35:00.021Z,96334.47
2022-12-27T10:37:26.805Z,96335.44
2022-12-27T10:39:53.237Z,96343.16
2022-12-27T10:42:28.795Z,96334.81
2022-12-27T10:45:14.182Z,96345.66
2022-12-27T10:47:40.769Z,96343.88
2022-12-27T10:50:13.345Z,96340.94
2022-12-27T10:52:39.936Z,96357.16
2022-12-27T10:55:26.372Z,96359.13
2022-12-27T10:57:54.014Z,96359.72
2022-12-27T11:00:21.542Z,96371.84
2022-12-27T11:02:50.822Z,96361.38
2022-12-27T11:05:21.633Z,96366.28
2022-12-27T11:07:48.104Z,96368.56
2022-12-27T11:10:16.812Z,96372.81
2022-12-27T11:13:00.363Z,96361.03
2022-12-27T11:15:27.289Z,96365.78
2022-12-27T11:17:54.893Z,96360.22
2022-12-27T11:20:21.441Z,96375.09
2022-12-27T11:22:53.706Z,96371.84
2022-12-27T11:25:21.462Z,96372.13
2022-12-27T11:27:50.665Z,96364.94
2022-12-27T11:30:38.525Z,96372.13
2022-12-27T11:33:25.246Z,96370.00
2022-12-27T11:35:52.797Z,96375.22
2022-12-27T11:38:26.552Z,96374.41
2022-12-27T11:41:02.369Z,96388.19
2022-12-27T11:43:32.245Z,96395.72
2022-12-27T11:46:00.665Z,96388.50
2022-12-27T11:48:30.985Z,96389.78
2022-12-27T11:51:04.372Z,96374.38
2022-12-27T11:54:02.989Z,96387.47
2022-12-27T11:56:34.720Z,96381.03
2022-12-27T11:59:19.938Z,96377.47
2022-12-27T12:01:49.486Z,96369.13
2022-12-27T12:04:37.911Z,96382.38
2022-12-27T12:07:10.505Z,96381.56
2022-12-27T12:09:55.940Z,96388.16
2022-12-27T12:12:25.435Z,96395.69
2022-12-27T12:15:10.541Z,96395.38
2022-12-27T12:17:46.255Z,96391.47
2022-12-27T12:20:15.854Z,96399.66
2022-12-27T12:22:55.865Z,96403.72
2022-12-27T12:25:45.347Z,96396.59
2022-12-27T12:28:47.404Z,96400.22
2022-12-27T12:31:19.903Z,96407.41
2022-12-27T12:33:49.284Z,96397.09
2022-12-27T12:36:34.436Z,96399.84
2022-12-27T12:39:07.105Z,96392.34
2022-12-27T12:41:49.676Z,96406.09
2022-12-27T12:44:16.093Z,96404.47
2022-12-27T12:47:01.314Z,96396.16
2022-12-27T12:49:46.542Z,96391.13
2022-12-27T12:52:22.196Z,96399.84
2022-12-27T12:54:48.630Z,96401.03
2022-12-27T12:57:18.036Z,96398.25
2022-12-27T13:00:09.318Z,96397.41
2022-12-27T13:02:38.667Z,96394.59
2022-12-27T13:05:11.674Z,96401.63
2022-12-27T13:07:41.432Z,96398.84
2022-12-27T13:10:13.705Z,96407.19
2022-12-27T13:12:52.302Z,96409.16
2022-12-27T13:15:24.013Z,96423.56
2022-12-27T13:18:02.642Z,96412.69
2022-12-27T13:20:29.089Z,96410.22
2022-12-27T13:23:07.301Z,96414.03
2022-12-27T13:25:51.866Z,96412.41
2022-12-27T13:28:27.445Z,96417.00
2022-12-27T13:31:06.560Z,96416.84
2022-12-27T13:33:46.098Z,96406.69
2022-12-27T13:36:20.912Z,96410.22
2022-12-27T13:39:06.198Z,96411.72
2022-12-27T13:41:38.353Z,96407.84
2022-12-27T13:44:04.809Z,96413.06
2022-12-27T13:46:42.100Z,96423.56
2022-12-27T13:49:15.258Z,96422.88
2022-12-27T13:51:44.181Z,96419.28
2022-12-27T13:54:16.664Z,96424.19
2022-12-27T13:57:01.791Z,96429.78
2022-12-27T13:59:47.266Z,96435.34
2022-12-27T14:02:20.041Z,96438.28
2022-12-27T14:04:59.015Z,96440.09
2022-12-27T14:07:44.451Z,96447.16
2022-12-27T14:10:15.048Z,96445.84
2022-12-27T14:12:51.879Z,96452.75
2022-12-27T14:15:22.253Z,96440.28
2022-12-27T14:17:57.970Z,96432.41
2022-12-27T14:20:30.186Z,96436.38
2022-12-27T14:22:56.598Z,96435.88
2022-12-27T14:25:41.466Z,96432.56
2022-12-27T14:28:24.486Z,96432.53
2022-12-27T14:30:50.986Z,96436.94
2022-12-27T14:33:36.216Z,96442.19
2022-12-27T14:36:02.799Z,96451.19
2022-12-27T14:38:47.943Z,96451.34
2022-12-27T14:41:23.447Z,96464.47
2022-12-27T14:44:10.486Z,96467.50
2022-12-27T14:46:40.443Z,96482.44
2022-12-27T14:49:25.325Z,96470.28
2022-12-27T14:52:07.239Z,96470.59
2022-12-27T14:55:03.596Z,96476.53
2022-12-27T14:57:36.012Z,96474.69
2022-12-27T15:00:14.519Z,96479.22
2022-12-27T15:02:47.633Z,96475.69
2022-12-27T15:05:37.516Z,96483.44
2022-12-27T15:08:04.059Z,96492.94
2022-12-27T15:10:45.827Z,96495.53
2022-12-27T15:13:15.349Z,96495.53
2022-12-27T15:15:48.082Z,96499.97
2022-12-27T15:18:31.617Z,96498.00
2022-12-27T15:21:15.193Z,96506.03
2022-12-27T15:23:47.704Z,96513.72
2022-12-27T15:26:23.270Z,96511.09
2022-12-27T15:28:52.905Z,96512.09
2022-12-27T15:31:19.410Z,96516.28
2022-12-27T15:33:57.779Z,96516.59
2022-12-27T15:36:37.547Z,96521.47
2022-12-27T15:39:04.210Z,96523.09
2022-12-27T15:41:48.308Z,96537.41
2022-12-27T15:44:29.822Z,96530.66
2022-12-27T15:47:02.235Z,96528.72
2022-12-27T15:49:55.157Z,96528.41
2022-12-27T15:52:21.588Z,96529.75
2022-12-27T15:55:06.629Z,96535.00
2022-12-27T15:57:33.056Z,96533.63
2022-12-27T16:00:05.625Z,96541.97
2022-12-27T16:02:33.684Z,96540.28
2022-12-27T16:05:00.363Z,96544.19
2022-12-27T16:07:42.052Z,96541.97
2022-12-27T16:10:27.143Z,96542.78
2022-12-27T16:13:16.845Z,96544.13
2022-12-27T16:15:44.650Z,96538.06
2022-12-27T16:18:17.864Z,96538.06
2022-12-27T16:20:59.676Z,96533.28
2022-12-27T16:23:32.282Z,96536.88
2022-12-27T16:26:03.173Z,96537.81
2022-12-27T16:28:30.825Z,96536.56
2022-12-27T16:31:01.923Z,96540.97
2022-12-27T16:33:29.216Z,96547.19
2022-12-27T16:36:14.449Z,96548.03
2022-12-27T16:38:53.082Z,96553.69
2022-12-27T16:41:19.534Z,96552.28
2022-12-27T16:43:49.063Z,96565.75
2022-12-27T16:46:19.586Z,96563.44
2022-12-27T16:48:46.031Z,96563.97
2022-12-27T16:51:33.114Z,96564.75
2022-12-27T16:54:03.275Z,96563.81
2022-12-27T16:56:32.475Z,96555.94
2022-12-27T16:58:59.156Z,96563.13
2022-12-27T17:01:25.777Z,96563.44
2022-12-27T17:03:52.901Z,96562.44
2022-12-27T17:06:31.923Z,96564.69
2022-12-27T17:09:08.518Z,96574.22
2022-12-27T17:11:39.312Z,96577.50
2022-12-27T17:14:11.784Z,96579.69
2022-12-27T17:16:42.971Z,96575.53
2022-12-27T17:19:19.109Z,96567.38
2022-12-27T17:21:46.029Z,96567.53
2022-12-27T17:24:18.004Z,96575.25
2022-12-27T17:26:44.759Z,96568.38
2022-12-27T17:29:30.437Z,96562.81
2022-12-27T17:31:57.236Z,96568.44
2022-12-27T17:34:36.944Z,96568.44
2022-12-27T17:37:15.828Z,96572.41
2022-12-27T17:40:01.201Z,96582.59
2022-12-27T17:42:53.599Z,96569.41
2022-12-27T17:45:31.089Z,96562.03
2022-12-27T17:48:23.210Z,96570.00
2022-12-27T17:50:54.743Z,96579.84
2022-12-27T17:53:41.492Z,96580.63
2022-12-27T17:56:26.805Z,96571.00
2022-12-27T17:59:02.279Z,96572.63
2022-12-27T18:01:30.347Z,96576.91
2022-12-27T18:03:57.061Z,96576.91
2022-12-27T18:06:23.675Z,96573.91
2022-12-27T18:08:50.399Z,96572.56
2022-12-27T18:11:17.044Z,96575.03
2022-12-27T18:13:48.854Z,96576.16
2022-12-27T18:16:21.416Z,96575.31
2022-12-27T18:18:49.163Z,96581.94
2022-12-27T18:21:23.391Z,96580.78
2022-12-27T18:23:52.812Z,96582.44
2022-12-27T18:26:20.579Z,96584.09
2022-12-27T18:28:49.628Z,96579.38
2022-12-27T18:31:28.208Z,96584.09
2022-12-27T18:34:12.331Z,96576.22
2022-12-27T18:36:48.067Z,96586.56
2022-12-27T18:39:26.087Z,96583.94
2022-12-27T18:41:53.573Z,96597.88
2022-12-27T18:44:27.671Z,96591.78
2022-12-27T18:46:57.467Z,96597.88
2022-12-27T18:49:31.957Z,96593.00
2022-12-27T18:51:58.713Z,96597.56
2022-12-27T18:54:28.677Z,96603.09
2022-12-27T18:56:59.919Z,96603.69
2022-12-27T18:59:28.873Z,96604.22
2022-12-27T19:02:00.539Z,96604.75
2022-12-27T19:04:27.511Z,96599.66
2022-12-27T19:06:56.419Z,96591.25
2022-12-27T19:09:25.681Z,96592.56
2022-12-27T19:11:53.468Z,96590.88
2022-12-27T19:14:20.912Z,96586.03
2022-12-27T19:16:52.816Z,96595.25
2022-12-27T19:19:22.701Z,96596.72
2022-12-27T19:21:49.283Z,96611.34
2022-12-27T19:24:27.915Z,96612.97
2022-12-27T19:26:55.082Z,96609.25
2022-12-27T19:29:22.972Z,96616.88
2022-12-27T19:31:54.791Z,96623.06
2022-12-27T19:34:21.615Z,96616.72
2022-12-27T19:36:48.726Z,96627.91
2022-12-27T19:39:21.303Z,96624.28
2022-12-27T19:41:48.431Z,96625.41
2022-12-27T19:44:15.151Z,96636.19
2022-12-27T19:46:41.695Z,96638.13
2022-12-27T19:49:40.131Z,96641.72
2022-12-27T19:51:55.784Z,96646.81
2022-12-27T19:54:24.804Z,96646.66
2022-12-27T19:56:51.603Z,96648.09
2022-12-27T19:59:19.536Z,96648.91
2022-12-27T20:01:46.190Z,96654.13
2022-12-27T20:04:13.623Z,96653.31
2022-12-27T20:06:41.533Z,96656.75
2022-12-27T20:09:15.389Z,96653.84
2022-12-27T20:11:42.220Z,96651.50
2022-12-27T20:14:08.764Z,96653.19
2022-12-27T20:16:35.271Z,96648.47
2022-12-27T20:19:03.024Z,96645.41
2022-12-27T20:21:30.071Z,96648.69
2022-12-27T20:23:56.559Z,96643.09
2022-12-27T20:26:24.218Z,96644.72
2022-12-27T20:28:51.438Z,96641.00
2022-12-27T20:31:19.479Z,96646.06
2022-12-27T20:33:50.159Z,96647.72
2022-12-27T20:36:16.882Z,96644.63
2022-12-27T20:38:44.094Z,96657.25
2022-12-27T20:41:14.705Z,96657.66
2022-12-27T20:43:41.830Z,96655.50
2022-12-27T20:46:10.762Z,96664.03
2022-12-27T20:48:38.476Z,96667.03
2022-12-27T20:51:06.208Z,96672.28
2022-12-27T20:53:32.887Z,96673.69
2022-12-27T20:56:00.667Z,96672.56
2022-12-27T20:58:27.230Z,96677.00
2022-12-27T21:00:53.884Z,96673.53
2022-12-27T21:03:20.894Z,96671.06
2022-12-27T21:05:47.463Z,96677.13
2022-12-27T21:08:14.076Z,96673.22
2022-12-27T21:10:40.837Z,96671.28
2022-12-27T21:13:07.979Z,96661.81
2022-12-27T21:15:40.404Z,96667.03
2022-12-27T21:18:09.142Z,96679.22
2022-12-27T21:20:35.639Z,96676.75
2022-12-27T21:23:02.112Z,96681.00
2022-12-27T21:25:28.639Z,96674.78
2022-12-27T21:27:55.067Z,96665.44
2022-12-27T21:30:21.817Z,96679.22
2022-12-27T21:32:48.267Z,96680.84
2022-12-27T21:35:14.940Z,96678.41
2022-12-27T21:37:41.373Z,96676.75
2022-12-27T21:40:08.071Z,96678.47
2022-12-27T21:42:34.545Z,96671.25
2022-12-27T21:45:01.013Z,96676.22
2022-12-27T21:47:29.244Z,96664.91
2022-12-27T21:49:56.030Z,96662.75
2022-12-27T21:52:22.530Z,96648.72
2022-12-27T21:54:48.972Z,96657.69
2022-12-27T21:57:15.400Z,96657.00
2022-12-27T21:59:41.850Z,96658.81
2022-12-27T22:02:08.832Z,96651.22
2022-12-27T22:04:35.413Z,96646.59
2022-12-27T22:07:01.861Z,96642.34
2022-12-27T22:09:28.303Z,96637.59
2022-12-27T22:11:54.746Z,96636.50
2022-12-27T22:14:25.388Z,96644.06
2022-12-27T22:16:52.464Z,96638.13
2022-12-27T22:19:18.973Z,96639.94
2022-12-27T22:21:45.426Z,96643.00
2022-12-27T22:24:13.026Z,96642.72
2022-12-27T22:26:39.616Z,96643.00
2022-12-27T22:29:07.026Z,96648.22
2022-12-27T22:31:35.429Z,96649.66
2022-12-27T22:34:03.458Z,96654.06
2022-12-27T22:36:30.039Z,96656.69
2022-12-27T22:38:57.256Z,96652.69
2022-12-27T22:41:31.297Z,96660.06
2022-12-27T22:43:58.867Z,96658.72
2022-12-27T22:46:25.858Z,96652.50
2022-12-27T22:48:53.514Z,96656.66
2022-12-27T22:51:21.386Z,96656.34
2022-12-27T22:53:48.580Z,96653.75
2022-12-27T22:56:19.778Z,96655.25
2022-12-27T22:58:46.742Z,96658.13
2022-12-27T23:01:14.571Z,96667.13
2022-12-27T23:03:41.563Z,96668.06
2022-12-27T23:06:08.082Z,96664.66
2022-12-27T23:08:36.125Z,96671.66
2022-12-27T23:11:03.739Z,96667.13
2022-12-27T23:13:30.180Z,96666.97
2022-12-27T23:16:00.400Z,96668.34
2022-12-27T23:18:28.124Z,96659.16
2022-12-27T23:21:22.981Z,96668.78
2022-12-27T23:23:42.234Z,96663.03
2022-12-27T23:26:10.521Z,96661.09
2022-12-27T23:28:38.034Z,96666.72
2022-12-27T23:31:05.021Z,96666.28
2022-12-27T23:33:31.560Z,96673.44
2022-12-27T23:35:58.075Z,96669.88
2022-12-27T23:38:24.570Z,96663.66
2022-12-27T23:40:58.296Z,96662.31
2022-12-27T23:46:11.372Z,96661.59
2022-12-27T23:48:37.951Z,96663.41
2022-12-27T23:51:04.490Z,96659.44
2022-12-27T23:53:31.413Z,96659.00
2022-12-27T23:55:58.902Z,96654.47
2022-12-27T23:58:25.557Z,96664.00
